Time;durP1;ratioP1;P1;durP2;ratioP2;P2;SDS_P1;SDS_P2;PMS_P1;PMS_P2;Temp;Humidity;BMP_temperature;BMP_pressure;BME280_temperature;BME280_humidity;BME280_pressure;Samples;Min_cycle;Max_cycle;Signal;HPM_P1;HPM_P2
2023/01/08 00:02:05;;;;;;;6.05;1.73;;;;;;;;;;5046525;28;20055;-67
2023/01/08 00:04:32;;;;;;;8.90;2.25;;;;;;;;;;5040365;28;20070;-68
2023/01/08 00:06:58;;;;;;;8.80;2.30;;;;;;;;;;5017895;28;20595;-67
2023/01/08 00:09:25;;;;;;;6.00;1.80;;;;;;;;;;5033735;28;20566;-67
2023/01/08 00:11:52;;;;;;;4.85;1.30;;;;;;;;;;5040412;28;20398;-67
2023/01/08 00:14:18;;;;;;;5.75;1.70;;;;;;;;;;5053718;28;20917;-70
2023/01/08 00:17:05;;;;;;;6.45;2.03;;;;;;;;;;5055081;28;20032;-67
2023/01/08 00:19:31;;;;;;;8.00;1.98;;;;;;;;;;5060857;28;20036;-68
2023/01/08 00:21:58;;;;;;;8.32;2.08;;;;;;;;;;5061206;28;20082;-66
2023/01/08 00:24:24;;;;;;;6.40;1.80;;;;;;;;;;5058520;28;20422;-67
2023/01/08 00:26:51;;;;;;;11.45;2.25;;;;;;;;;;5060688;28;20036;-66
2023/01/08 00:29:18;;;;;;;5.93;1.80;;;;;;;;;;5062253;28;20575;-70
2023/01/08 00:31:44;;;;;;;7.78;1.92;;;;;;;;;;5059969;28;20214;-67
2023/01/08 00:34:11;;;;;;;5.97;1.83;;;;;;;;;;5060947;28;20573;-68
2023/01/08 00:36:38;;;;;;;10.55;2.55;;;;;;;;;;5061347;28;20063;-67
2023/01/08 00:39:04;;;;;;;5.88;2.40;;;;;;;;;;5060472;28;20046;-67
2023/01/08 00:41:31;;;;;;;7.30;2.40;;;;;;;;;;5059398;28;20392;-66
2023/01/08 00:43:58;;;;;;;11.73;2.67;;;;;;;;;;5061579;28;20131;-65
2023/01/08 00:46:24;;;;;;;12.68;2.60;;;;;;;;;;5060084;28;20750;-67
2023/01/08 00:48:51;;;;;;;14.23;2.95;;;;;;;;;;5060628;28;20495;-66
2023/01/08 00:51:17;;;;;;;13.15;3.22;;;;;;;;;;5061044;28;20036;-67
2023/01/08 00:53:44;;;;;;;10.80;3.65;;;;;;;;;;5027640;28;20155;-69
2023/01/08 00:56:11;;;;;;;16.80;5.03;;;;;;;;;;5043961;28;20036;-70
2023/01/08 00:58:37;;;;;;;15.68;5.55;;;;;;;;;;5046200;28;20091;-70
2023/01/08 01:01:09;;;;;;;26.20;5.60;;;;;;;;;;5046885;28;20440;-67
2023/01/08 01:03:36;;;;;;;12.80;5.30;;;;;;;;;;5048637;28;20048;-67
2023/01/08 01:06:03;;;;;;;18.17;5.50;;;;;;;;;;5045354;28;20037;-67
2023/01/08 01:08:30;;;;;;;14.80;5.20;;;;;;;;;;5047070;28;20127;-68
2023/01/08 01:10:56;;;;;;;21.38;7.28;;;;;;;;;;5045108;28;20047;-66
2023/01/08 01:13:23;;;;;;;29.00;7.82;;;;;;;;;;5043873;28;20051;-67
2023/01/08 01:16:08;;;;;;;41.13;15.68;;;;;;;;;;5045974;28;20175;-68
2023/01/08 01:18:35;;;;;;;30.10;11.43;;;;;;;;;;5045612;28;20055;-70
2023/01/08 01:21:02;;;;;;;34.47;10.55;;;;;;;;;;5045928;28;20036;-67
2023/01/08 01:23:28;;;;;;;20.70;8.65;;;;;;;;;;5030504;28;20152;-66
2023/01/08 01:25:55;;;;;;;21.83;8.63;;;;;;;;;;5045404;28;20055;-68
2023/01/08 01:28:22;;;;;;;24.63;8.02;;;;;;;;;;5045787;28;20041;-67
2023/01/08 01:30:53;;;;;;;22.25;7.20;;;;;;;;;;5045220;28;20052;-68
2023/01/08 01:33:20;;;;;;;25.45;7.93;;;;;;;;;;5046199;28;20041;-67
2023/01/08 01:35:47;;;;;;;23.10;6.90;;;;;;;;;;5047951;28;20489;-69
2023/01/08 01:38:14;;;;;;;23.52;7.32;;;;;;;;;;5046843;28;20045;-66
2023/01/08 01:40:43;;;;;;;17.25;6.57;;;;;;;;;;5045002;28;20064;-68
2023/01/08 01:43:13;;;;;;;23.45;6.88;;;;;;;;;;5046154;28;20071;-67
2023/01/08 01:45:43;;;;;;;21.33;6.95;;;;;;;;;;5046483;28;20184;-68
2023/01/08 01:48:11;;;;;;;22.35;7.30;;;;;;;;;;5045119;28;20044;-68
2023/01/08 01:50:48;;;;;;;20.77;7.40;;;;;;;;;;5045798;28;20119;-67
2023/01/08 01:53:18;;;;;;;15.48;7.07;;;;;;;;;;5046460;28;20096;-67
2023/01/08 01:55:45;;;;;;;15.57;6.45;;;;;;;;;;5044868;28;20043;-66
2023/01/08 01:58:12;;;;;;;32.97;12.90;;;;;;;;;;5045003;28;20405;-67
2023/01/08 02:00:39;;;;;;;17.35;6.25;;;;;;;;;;5046144;28;20367;-68
2023/01/08 02:03:06;;;;;;;16.40;6.88;;;;;;;;;;5045555;28;20082;-66
2023/01/08 02:05:43;;;;;;;17.38;6.90;;;;;;;;;;5047083;28;20040;-67
2023/01/08 02:08:12;;;;;;;15.98;6.53;;;;;;;;;;5046644;28;20040;-68
2023/01/08 02:10:48;;;;;;;19.88;6.70;;;;;;;;;;5048132;28;21656;-67
2023/01/08 02:13:19;;;;;;;18.55;6.55;;;;;;;;;;5049461;28;20132;-66
2023/01/08 02:15:46;;;;;;;17.55;7.20;;;;;;;;;;5058326;28;20042;-66
2023/01/08 02:18:20;;;;;;;21.45;7.00;;;;;;;;;;5022507;28;20047;-66
2023/01/08 02:20:50;;;;;;;15.65;5.80;;;;;;;;;;5043176;28;20037;-65
2023/01/08 02:23:16;;;;;;;19.95;6.25;;;;;;;;;;5025445;28;20041;-68
2023/01/08 02:25:52;;;;;;;25.02;6.80;;;;;;;;;;5026214;28;20069;-67
2023/01/08 02:28:19;;;;;;;18.02;6.85;;;;;;;;;;5023277;28;20059;-67
2023/01/08 02:30:47;;;;;;;17.70;6.25;;;;;;;;;;5023799;28;20458;-68
2023/01/08 02:33:14;;;;;;;38.97;16.63;;;;;;;;;;5023261;28;20049;-70
2023/01/08 02:35:53;;;;;;;15.77;6.25;;;;;;;;;;5024533;28;20037;-67
2023/01/08 02:38:20;;;;;;;17.35;5.70;;;;;;;;;;5024757;28;20065;-66
2023/01/08 02:40:56;;;;;;;18.48;6.05;;;;;;;;;;5024719;28;20048;-68
2023/01/08 02:43:36;;;;;;;16.98;6.18;;;;;;;;;;5024113;28;20175;-67
2023/01/08 02:46:03;;;;;;;16.90;6.13;;;;;;;;;;5024843;28;20068;-68
2023/01/08 02:48:36;;;;;;;15.63;6.13;;;;;;;;;;5023256;28;20875;-67
2023/01/08 02:51:03;;;;;;;19.43;6.63;;;;;;;;;;5026004;28;20048;-70
2023/01/08 02:53:36;;;;;;;14.65;6.43;;;;;;;;;;5025538;28;20714;-66
2023/01/08 02:56:05;;;;;;;14.35;5.38;;;;;;;;;;5028908;28;20370;-66
2023/01/08 02:58:33;;;;;;;17.20;6.45;;;;;;;;;;5031029;28;20048;-67
2023/01/08 03:01:02;;;;;;;17.67;5.78;;;;;;;;;;5030202;28;20079;-67
2023/01/08 03:03:29;;;;;;;21.95;6.40;;;;;;;;;;5033380;28;20045;-68
2023/01/08 03:05:57;;;;;;;19.08;6.60;;;;;;;;;;5034193;28;20037;-68
2023/01/08 03:08:24;;;;;;;20.35;6.53;;;;;;;;;;5038733;28;20049;-69
2023/01/08 03:10:55;;;;;;;19.38;6.28;;;;;;;;;;5023870;28;20045;-68
2023/01/08 03:13:26;;;;;;;22.10;6.90;;;;;;;;;;5024382;28;20764;-68
2023/01/08 03:15:55;;;;;;;15.55;6.43;;;;;;;;;;5025430;28;20068;-70
2023/01/08 03:18:27;;;;;;;15.90;5.75;;;;;;;;;;5023302;28;20091;-69
2023/01/08 03:20:54;;;;;;;19.63;6.63;;;;;;;;;;5026579;28;20052;-66
2023/01/08 03:23:22;;;;;;;16.92;6.60;;;;;;;;;;5023384;28;20041;-67
2023/01/08 03:25:49;;;;;;;17.88;6.25;;;;;;;;;;5025113;28;20049;-67
2023/01/08 03:28:22;;;;;;;22.13;7.10;;;;;;;;;;5030041;28;20597;-67
2023/01/08 03:30:49;;;;;;;13.65;5.70;;;;;;;;;;5016437;28;20052;-68
2023/01/08 03:33:17;;;;;;;18.35;6.57;;;;;;;;;;5029089;28;20303;-67
2023/01/08 03:35:47;;;;;;;16.17;6.45;;;;;;;;;;5030414;28;20032;-68
2023/01/08 03:38:17;;;;;;;17.27;6.80;;;;;;;;;;5061496;28;20052;-66
2023/01/08 03:40:45;;;;;;;19.95;6.95;;;;;;;;;;5053659;28;20600;-68
2023/01/08 03:43:12;;;;;;;20.00;6.78;;;;;;;;;;5022652;28;20107;-66
2023/01/08 03:45:40;;;;;;;20.50;6.90;;;;;;;;;;5032445;28;20053;-68
2023/01/08 03:48:07;;;;;;;16.05;6.80;;;;;;;;;;5045304;28;20060;-68
2023/01/08 03:50:34;;;;;;;16.67;7.22;;;;;;;;;;5044022;28;20051;-68
2023/01/08 03:53:01;;;;;;;20.25;6.95;;;;;;;;;;5040557;28;20044;-67
2023/01/08 03:55:28;;;;;;;23.67;9.40;;;;;;;;;;5032980;28;20041;-67
2023/01/08 03:57:56;;;;;;;25.13;9.93;;;;;;;;;;5027998;28;20045;-68
2023/01/08 04:00:22;;;;;;;19.08;9.60;;;;;;;;;;5045373;28;20040;-67
2023/01/08 04:02:49;;;;;;;22.80;8.90;;;;;;;;;;5047402;28;21867;-70
2023/01/08 04:05:16;;;;;;;24.88;9.57;;;;;;;;;;5046087;28;20049;-66
2023/01/08 04:07:42;;;;;;;22.40;9.68;;;;;;;;;;5049280;28;20040;-68
2023/01/08 04:10:09;;;;;;;25.85;9.57;;;;;;;;;;5048087;28;20037;-70
2023/01/08 04:12:36;;;;;;;23.17;9.57;;;;;;;;;;5047817;28;20480;-65
2023/01/08 04:15:03;;;;;;;33.60;11.82;;;;;;;;;;5024086;28;20041;-69
2023/01/08 04:17:29;;;;;;;31.58;12.52;;;;;;;;;;5019949;28;20034;-67
2023/01/08 04:19:56;;;;;;;27.45;10.48;;;;;;;;;;5026971;28;20073;-67
2023/01/08 04:22:23;;;;;;;24.33;10.13;;;;;;;;;;5033726;28;20115;-67
2023/01/08 04:24:49;;;;;;;28.40;9.43;;;;;;;;;;5023590;28;20075;-65
2023/01/08 04:27:16;;;;;;;29.08;12.15;;;;;;;;;;5023954;28;20030;-65
2023/01/08 04:29:42;;;;;;;31.20;11.77;;;;;;;;;;5028468;28;20072;-68
2023/01/08 04:32:09;;;;;;;26.70;10.95;;;;;;;;;;5047500;28;20037;-69
2023/01/08 04:34:36;;;;;;;23.30;9.80;;;;;;;;;;5044272;28;20058;-67
2023/01/08 04:37:03;;;;;;;26.75;9.45;;;;;;;;;;5046565;28;20369;-68
2023/01/08 04:39:29;;;;;;;18.95;8.32;;;;;;;;;;5046939;28;20037;-67
2023/01/08 04:41:56;;;;;;;20.08;8.07;;;;;;;;;;5046591;28;20035;-66
2023/01/08 04:44:23;;;;;;;17.60;7.53;;;;;;;;;;5045007;28;20498;-67
2023/01/08 04:46:49;;;;;;;19.05;8.57;;;;;;;;;;5046802;28;20049;-67
2023/01/08 04:49:16;;;;;;;14.57;6.53;;;;;;;;;;5051324;28;20055;-68
2023/01/08 04:51:43;;;;;;;14.82;6.22;;;;;;;;;;5034961;28;20062;-68
2023/01/08 04:54:10;;;;;;;14.73;5.75;;;;;;;;;;5028832;28;20041;-67
2023/01/08 04:56:36;;;;;;;17.45;6.50;;;;;;;;;;5040417;28;20054;-68
2023/01/08 04:59:03;;;;;;;21.65;7.18;;;;;;;;;;5020945;28;20148;-68
2023/01/08 05:01:30;;;;;;;13.93;6.72;;;;;;;;;;5035043;28;20081;-68
2023/01/08 05:03:58;;;;;;;23.08;7.10;;;;;;;;;;5047183;28;20045;-67
2023/01/08 05:06:25;;;;;;;19.35;8.32;;;;;;;;;;5045517;28;20032;-67
2023/01/08 05:08:52;;;;;;;19.35;7.53;;;;;;;;;;5049071;28;20149;-67
2023/01/08 05:11:18;;;;;;;18.17;7.22;;;;;;;;;;5047402;28;20087;-67
2023/01/08 05:13:47;;;;;;;15.68;7.75;;;;;;;;;;5046275;28;20036;-68
2023/01/08 05:16:14;;;;;;;18.67;7.63;;;;;;;;;;5046294;28;20383;-67
2023/01/08 05:18:41;;;;;;;14.95;7.47;;;;;;;;;;5046035;28;20045;-66
2023/01/08 05:21:07;;;;;;;21.05;8.05;;;;;;;;;;5046185;28;20052;-66
2023/01/08 05:23:34;;;;;;;16.08;7.53;;;;;;;;;;5044995;28;20055;-68
2023/01/08 05:26:02;;;;;;;15.95;6.70;;;;;;;;;;5045636;28;20088;-67
2023/01/08 05:28:29;;;;;;;19.60;7.07;;;;;;;;;;5045476;28;21705;-67
2023/01/08 05:30:56;;;;;;;14.48;6.50;;;;;;;;;;5045445;28;20494;-68
2023/01/08 05:33:23;;;;;;;14.45;6.80;;;;;;;;;;5045206;28;20056;-67
2023/01/08 05:35:50;;;;;;;18.25;7.85;;;;;;;;;;5046427;28;20094;-66
2023/01/08 05:38:16;;;;;;;27.48;7.90;;;;;;;;;;5047005;28;20523;-67
2023/01/08 05:40:43;;;;;;;18.35;7.38;;;;;;;;;;5046162;28;20595;-68
2023/01/08 05:43:10;;;;;;;18.08;8.00;;;;;;;;;;5060450;28;20041;-66
2023/01/08 05:45:36;;;;;;;19.15;7.22;;;;;;;;;;5045913;28;20063;-67
2023/01/08 05:48:06;;;;;;;17.88;7.35;;;;;;;;;;5046369;28;20051;-67
2023/01/08 05:50:34;;;;;;;15.93;7.50;;;;;;;;;;5045917;28;20040;-66
2023/01/08 05:53:00;;;;;;;23.10;7.85;;;;;;;;;;5045019;28;20060;-66
2023/01/08 05:55:27;;;;;;;13.73;7.75;;;;;;;;;;5046503;28;20041;-68
2023/01/08 05:57:54;;;;;;;19.42;7.13;;;;;;;;;;5044530;28;20044;-67
2023/01/08 06:00:20;;;;;;;17.65;7.15;;;;;;;;;;5043769;28;20081;-67
2023/01/08 06:02:48;;;;;;;15.48;6.30;;;;;;;;;;5045167;28;20052;-67
2023/01/08 06:05:14;;;;;;;16.58;6.55;;;;;;;;;;5044607;28;20078;-67
2023/01/08 06:07:41;;;;;;;15.00;6.13;;;;;;;;;;5045649;28;20123;-67
2023/01/08 06:10:08;;;;;;;18.58;5.95;;;;;;;;;;5044733;28;20152;-65
2023/01/08 06:12:35;;;;;;;17.25;5.63;;;;;;;;;;5043477;28;20056;-67
2023/01/08 06:15:01;;;;;;;21.40;6.40;;;;;;;;;;5042048;28;20052;-67
2023/01/08 06:17:28;;;;;;;20.70;6.07;;;;;;;;;;5044958;28;20040;-68
2023/01/08 06:19:55;;;;;;;17.20;5.78;;;;;;;;;;5045704;28;20029;-68
2023/01/08 06:22:21;;;;;;;15.50;6.10;;;;;;;;;;5043708;28;20033;-68
2023/01/08 06:24:48;;;;;;;16.55;5.47;;;;;;;;;;5043535;28;20032;-68
2023/01/08 06:27:15;;;;;;;15.88;5.55;;;;;;;;;;5043845;28;20489;-68
2023/01/08 06:29:41;;;;;;;15.70;4.78;;;;;;;;;;5042777;28;20086;-67
2023/01/08 06:32:08;;;;;;;14.82;5.25;;;;;;;;;;5044339;28;20041;-68
2023/01/08 06:34:35;;;;;;;16.25;4.70;;;;;;;;;;5027242;28;20646;-68
2023/01/08 06:37:01;;;;;;;12.02;4.72;;;;;;;;;;5043951;28;20062;-68
2023/01/08 06:39:28;;;;;;;12.88;4.63;;;;;;;;;;5043822;28;20037;-68
2023/01/08 06:41:54;;;;;;;13.95;5.25;;;;;;;;;;5042746;28;20516;-67
2023/01/08 06:44:21;;;;;;;20.52;5.45;;;;;;;;;;5042483;28;20088;-68
2023/01/08 06:46:48;;;;;;;13.20;5.88;;;;;;;;;;5044009;28;20043;-67
2023/01/08 06:49:16;;;;;;;19.77;5.00;;;;;;;;;;5044613;28;20037;-67
2023/01/08 06:51:43;;;;;;;8.45;4.22;;;;;;;;;;5041331;28;20044;-68
2023/01/08 06:54:10;;;;;;;12.95;4.55;;;;;;;;;;5044005;28;20044;-67
2023/01/08 06:56:36;;;;;;;13.85;4.97;;;;;;;;;;5045469;28;20154;-67
2023/01/08 06:59:03;;;;;;;12.52;4.20;;;;;;;;;;5045596;28;20029;-68
2023/01/08 07:01:29;;;;;;;13.13;4.78;;;;;;;;;;5045225;28;20131;-68
2023/01/08 07:03:56;;;;;;;15.13;5.25;;;;;;;;;;5043046;28;20498;-67
2023/01/08 07:06:23;;;;;;;14.05;4.45;;;;;;;;;;5042880;28;20398;-68
2023/01/08 07:08:50;;;;;;;14.43;4.40;;;;;;;;;;5043695;28;21369;-67
2023/01/08 07:11:17;;;;;;;18.05;4.95;;;;;;;;;;5045948;28;20492;-67
2023/01/08 07:13:43;;;;;;;10.95;5.22;;;;;;;;;;5043905;28;20159;-67
2023/01/08 07:16:11;;;;;;;15.20;4.82;;;;;;;;;;5042826;28;20048;-69
2023/01/08 07:18:38;;;;;;;11.25;5.10;;;;;;;;;;5045046;28;20053;-67
2023/01/08 07:21:05;;;;;;;11.02;4.88;;;;;;;;;;5043831;28;20689;-70
2023/01/08 07:23:33;;;;;;;10.90;4.75;;;;;;;;;;5046404;28;20049;-67
2023/01/08 07:26:00;;;;;;;15.82;5.32;;;;;;;;;;5044440;28;20405;-68
2023/01/08 07:28:27;;;;;;;15.23;5.07;;;;;;;;;;5045038;28;20053;-67
2023/01/08 07:30:54;;;;;;;10.52;4.00;;;;;;;;;;5048504;28;20474;-67
2023/01/08 07:33:20;;;;;;;11.48;3.95;;;;;;;;;;5046692;28;20780;-69
2023/01/08 07:35:53;;;;;;;15.73;5.40;;;;;;;;;;5048715;28;20041;-67
2023/01/08 07:38:20;;;;;;;11.95;4.55;;;;;;;;;;5048571;28;20033;-67
2023/01/08 07:40:46;;;;;;;9.65;4.47;;;;;;;;;;5049879;28;20029;-67
2023/01/08 07:43:13;;;;;;;14.02;4.20;;;;;;;;;;5048383;28;20564;-69
2023/01/08 07:45:40;;;;;;;9.77;3.28;;;;;;;;;;5047766;28;20053;-67
2023/01/08 07:48:09;;;;;;;10.35;3.83;;;;;;;;;;5064323;28;20556;-67
2023/01/08 07:50:37;;;;;;;9.80;2.35;;;;;;;;;;5045719;28;20076;-67
2023/01/08 07:53:03;;;;;;;5.55;2.15;;;;;;;;;;5048590;28;20045;-67
2023/01/08 07:55:31;;;;;;;6.78;2.25;;;;;;;;;;5049434;28;20044;-68
2023/01/08 07:57:57;;;;;;;8.73;1.80;;;;;;;;;;5048587;28;20048;-68
2023/01/08 08:00:24;;;;;;;5.88;1.75;;;;;;;;;;5047768;28;21851;-68
2023/01/08 08:02:51;;;;;;;6.25;1.90;;;;;;;;;;5047167;28;20059;-68
2023/01/08 08:05:17;;;;;;;6.60;1.50;;;;;;;;;;5063785;28;20028;-68
2023/01/08 08:07:44;;;;;;;5.22;1.67;;;;;;;;;;5049824;28;20045;-68
2023/01/08 08:10:11;;;;;;;6.47;1.42;;;;;;;;;;5049265;28;20552;-68
2023/01/08 08:12:37;;;;;;;4.97;1.65;;;;;;;;;;5046081;28;20520;-68
2023/01/08 08:15:04;;;;;;;3.03;1.23;;;;;;;;;;5047148;28;20067;-68
2023/01/08 08:17:31;;;;;;;3.83;1.23;;;;;;;;;;5048355;28;20107;-68
2023/01/08 08:19:58;;;;;;;5.88;1.35;;;;;;;;;;5047939;28;20107;-67
2023/01/08 08:22:25;;;;;;;3.45;1.30;;;;;;;;;;5064959;28;20069;-67
2023/01/08 08:24:51;;;;;;;3.40;1.20;;;;;;;;;;5048303;28;20028;-67
2023/01/08 08:27:18;;;;;;;4.60;1.90;;;;;;;;;;5050020;28;20041;-67
2023/01/08 08:29:45;;;;;;;3.95;1.38;;;;;;;;;;5048674;28;20037;-66
2023/01/08 08:32:11;;;;;;;5.18;1.58;;;;;;;;;;5051949;28;20037;-67
2023/01/08 08:34:38;;;;;;;4.97;1.83;;;;;;;;;;5050165;28;20087;-67
2023/01/08 08:37:05;;;;;;;5.80;1.95;;;;;;;;;;5053612;28;20043;-67
2023/01/08 08:39:31;;;;;;;6.30;1.77;;;;;;;;;;5047057;28;20036;-67
2023/01/08 08:41:58;;;;;;;5.75;2.15;;;;;;;;;;5049509;28;20445;-67
2023/01/08 08:44:25;;;;;;;5.63;2.00;;;;;;;;;;5049310;28;20045;-67
2023/01/08 08:46:51;;;;;;;5.15;1.98;;;;;;;;;;5052488;28;20044;-67
2023/01/08 08:49:18;;;;;;;6.65;1.98;;;;;;;;;;5059041;28;20067;-68
2023/01/08 08:51:47;;;;;;;4.22;1.90;;;;;;;;;;5044950;28;20057;-68
2023/01/08 08:54:13;;;;;;;5.75;2.20;;;;;;;;;;5053742;28;20065;-68
2023/01/08 08:56:40;;;;;;;7.00;1.67;;;;;;;;;;5060176;28;20120;-68
2023/01/08 08:59:08;;;;;;;4.78;1.52;;;;;;;;;;5058555;28;20132;-70
2023/01/08 09:01:34;;;;;;;10.02;2.28;;;;;;;;;;5055508;28;20497;-67
2023/01/08 09:04:01;;;;;;;4.75;1.75;;;;;;;;;;5049053;28;20709;-67
2023/01/08 09:06:28;;;;;;;6.38;2.00;;;;;;;;;;5050285;28;21820;-68
2023/01/08 09:08:54;;;;;;;5.07;2.17;;;;;;;;;;5050450;28;20049;-68
2023/01/08 09:11:21;;;;;;;6.63;1.80;;;;;;;;;;5049890;28;20496;-68
2023/01/08 09:13:48;;;;;;;4.47;1.88;;;;;;;;;;5051280;28;20056;-67
2023/01/08 09:16:14;;;;;;;5.07;1.77;;;;;;;;;;5048561;28;20044;-68
2023/01/08 09:18:41;;;;;;;4.55;1.83;;;;;;;;;;5047976;28;20171;-68
2023/01/08 09:21:08;;;;;;;5.07;2.00;;;;;;;;;;5048506;28;20104;-67
2023/01/08 09:23:35;;;;;;;6.55;2.38;;;;;;;;;;5042880;28;20141;-66
2023/01/08 09:26:03;;;;;;;8.60;2.47;;;;;;;;;;5047143;28;20177;-67
2023/01/08 09:28:29;;;;;;;6.88;2.42;;;;;;;;;;5048224;28;20131;-67
2023/01/08 09:30:56;;;;;;;5.88;2.30;;;;;;;;;;5051833;28;20033;-68
2023/01/08 09:33:23;;;;;;;5.38;2.10;;;;;;;;;;5047091;28;20036;-68
2023/01/08 09:35:49;;;;;;;7.25;2.05;;;;;;;;;;5047688;28;20083;-68
2023/01/08 09:38:16;;;;;;;7.32;2.30;;;;;;;;;;5046544;28;20074;-67
2023/01/08 09:40:49;;;;;;;6.90;2.05;;;;;;;;;;5045593;28;20044;-67
2023/01/08 09:43:17;;;;;;;4.70;1.90;;;;;;;;;;5047380;28;20041;-68
2023/01/08 09:45:45;;;;;;;8.02;1.90;;;;;;;;;;5045286;28;20052;-68
2023/01/08 09:48:14;;;;;;;7.30;2.38;;;;;;;;;;5046640;28;20049;-68
2023/01/08 09:50:40;;;;;;;5.43;2.20;;;;;;;;;;5045708;28;20937;-68
2023/01/08 09:53:12;;;;;;;5.90;2.08;;;;;;;;;;5045100;28;20052;-68
2023/01/08 09:55:40;;;;;;;6.30;2.30;;;;;;;;;;5044999;28;20151;-68
2023/01/08 09:58:26;;;;;;;5.32;2.40;;;;;;;;;;5045359;28;20416;-68
2023/01/08 10:00:54;;;;;;;9.27;2.00;;;;;;;;;;5023766;28;20056;-68
2023/01/08 10:03:22;;;;;;;4.60;1.95;;;;;;;;;;5024144;28;20060;-69
2023/01/08 10:05:48;;;;;;;6.65;2.20;;;;;;;;;;5027037;28;20033;-69
2023/01/08 10:08:15;;;;;;;5.30;1.92;;;;;;;;;;5026212;28;20152;-69
2023/01/08 10:10:44;;;;;;;6.03;1.95;;;;;;;;;;5024461;28;20164;-68
2023/01/08 10:13:11;;;;;;;6.95;1.95;;;;;;;;;;5023893;28;20040;-68
2023/01/08 10:15:39;;;;;;;5.90;2.20;;;;;;;;;;5026102;28;20157;-66
2023/01/08 10:18:07;;;;;;;4.90;2.08;;;;;;;;;;5026597;28;20083;-66
2023/01/08 10:20:34;;;;;;;6.45;2.03;;;;;;;;;;5024712;28;20068;-66
2023/01/08 10:23:14;;;;;;;6.35;2.00;;;;;;;;;;5040312;28;20098;-66
2023/01/08 10:26:07;;;;;;;6.57;2.03;;;;;;;;;;5026319;28;20041;-67
2023/01/08 10:28:34;;;;;;;4.45;1.75;;;;;;;;;;5024257;28;20617;-67
2023/01/08 10:31:06;;;;;;;4.75;1.70;;;;;;;;;;5022974;28;20529;-69
2023/01/08 10:33:40;;;;;;;7.70;2.38;;;;;;;;;;5023282;28;21291;-68
2023/01/08 10:36:09;;;;;;;4.53;1.75;;;;;;;;;;5026197;28;20584;-68
2023/01/08 10:38:36;;;;;;;6.68;1.80;;;;;;;;;;5027013;28;20083;-67
2023/01/08 10:41:05;;;;;;;4.75;2.03;;;;;;;;;;5027290;28;20136;-69
2023/01/08 10:43:36;;;;;;;8.70;2.80;;;;;;;;;;5023675;28;20120;-67
2023/01/08 10:46:04;;;;;;;4.82;1.90;;;;;;;;;;5025176;28;20053;-67
2023/01/08 10:48:36;;;;;;;4.47;1.70;;;;;;;;;;5024289;28;20196;-68
2023/01/08 10:51:22;;;;;;;3.95;1.55;;;;;;;;;;5025349;28;20107;-68
2023/01/08 10:53:49;;;;;;;8.13;2.08;;;;;;;;;;5025152;28;20611;-68
2023/01/08 10:56:25;;;;;;;11.15;2.55;;;;;;;;;;5026118;28;20047;-70
2023/01/08 10:58:52;;;;;;;6.60;2.60;;;;;;;;;;5027393;28;20421;-68
2023/01/08 11:01:19;;;;;;;6.90;2.25;;;;;;;;;;5023011;28;20045;-68
2023/01/08 11:03:50;;;;;;;4.63;2.40;;;;;;;;;;5023604;28;20048;-68
2023/01/08 11:06:23;;;;;;;4.15;2.00;;;;;;;;;;5025199;28;20041;-68
2023/01/08 11:08:51;;;;;;;5.03;1.85;;;;;;;;;;5026223;28;20049;-68
2023/01/08 11:11:18;;;;;;;6.03;1.95;;;;;;;;;;5025800;28;20822;-69
2023/01/08 11:13:52;;;;;;;5.15;1.88;;;;;;;;;;5031623;28;20045;-68
2023/01/08 11:16:19;;;;;;;5.35;1.70;;;;;;;;;;5023280;28;20448;-69
2023/01/08 11:18:49;;;;;;;4.90;1.90;;;;;;;;;;5040666;28;20041;-68
2023/01/08 11:21:20;;;;;;;8.05;2.00;;;;;;;;;;5043253;28;20124;-68
2023/01/08 11:23:47;;;;;;;5.13;1.92;;;;;;;;;;5034000;28;20044;-68
2023/01/08 11:26:16;;;;;;;3.80;1.80;;;;;;;;;;5044627;28;20110;-68
2023/01/08 11:28:46;;;;;;;4.13;1.60;;;;;;;;;;5039881;28;20044;-67
2023/01/08 11:31:25;;;;;;;4.95;1.83;;;;;;;;;;5060721;28;20052;-68
2023/01/08 11:33:55;;;;;;;6.85;2.08;;;;;;;;;;5043997;28;20060;-68
2023/01/08 11:36:30;;;;;;;4.57;1.98;;;;;;;;;;5045133;28;20044;-68
2023/01/08 11:38:56;;;;;;;3.85;1.67;;;;;;;;;;5045700;28;20686;-67
2023/01/08 11:41:49;;;;;;;5.05;1.70;;;;;;;;;;5043692;28;20048;-68
2023/01/08 11:44:28;;;;;;;4.40;1.77;;;;;;;;;;5015617;28;20046;-68
2023/01/08 11:47:06;;;;;;;4.15;1.73;;;;;;;;;;5023005;28;20598;-68
2023/01/08 11:49:36;;;;;;;6.03;1.75;;;;;;;;;;5033512;28;20052;-68
2023/01/08 11:52:29;;;;;;;7.75;2.30;;;;;;;;;;5044435;28;20444;-68
2023/01/08 11:55:14;;;;;;;5.10;1.77;;;;;;;;;;5032362;28;20091;-68
2023/01/08 11:57:53;;;;;;;4.30;1.65;;;;;;;;;;5023923;28;20398;-68
2023/01/08 12:00:37;;;;;;;7.78;2.17;;;;;;;;;;5036910;28;20215;-68
2023/01/08 12:03:23;;;;;;;5.45;2.05;;;;;;;;;;5023718;28;20071;-69
2023/01/08 12:05:59;;;;;;;5.05;1.77;;;;;;;;;;5029661;28;20033;-68
2023/01/08 12:08:28;;;;;;;4.28;1.45;;;;;;;;;;5037550;28;20092;-70
2023/01/08 12:11:14;;;;;;;7.78;2.00;;;;;;;;;;5042972;28;20778;-69
2023/01/08 12:13:57;;;;;;;3.63;1.60;;;;;;;;;;5032190;28;20056;-68
2023/01/08 12:16:35;;;;;;;2.75;1.20;;;;;;;;;;5045868;28;20498;-68
2023/01/08 12:19:05;;;;;;;4.45;1.85;;;;;;;;;;5045437;28;20077;-68
2023/01/08 12:21:33;;;;;;;5.10;1.50;;;;;;;;;;5044619;28;20045;-67
2023/01/08 12:24:35;;;;;;;4.28;1.80;;;;;;;;;;5037373;28;20051;-67
2023/01/08 12:27:12;;;;;;;3.75;1.50;;;;;;;;;;5003676;28;20105;-68
2023/01/08 12:29:48;;;;;;;3.63;1.30;;;;;;;;;;5040647;28;20064;-67
2023/01/08 12:32:26;;;;;;;5.35;1.40;;;;;;;;;;5044169;28;20989;-67
2023/01/08 12:34:58;;;;;;;6.05;1.38;;;;;;;;;;5056203;28;20067;-67
2023/01/08 12:37:25;;;;;;;3.83;1.40;;;;;;;;;;5023317;28;20042;-68
2023/01/08 12:40:06;;;;;;;7.75;1.50;;;;;;;;;;5023304;28;20033;-69
2023/01/08 12:42:34;;;;;;;5.50;1.67;;;;;;;;;;5054378;28;20694;-68
2023/01/08 12:45:02;;;;;;;4.65;1.50;;;;;;;;;;5055007;28;20398;-69
2023/01/08 12:47:31;;;;;;;4.10;1.35;;;;;;;;;;5047349;28;20040;-67
2023/01/08 12:50:10;;;;;;;5.47;1.67;;;;;;;;;;5048108;28;20083;-68
2023/01/08 12:52:36;;;;;;;4.25;1.48;;;;;;;;;;5045427;28;20131;-68
2023/01/08 12:55:27;;;;;;;5.20;1.70;;;;;;;;;;5048025;28;20040;-68
2023/01/08 12:58:00;;;;;;;4.38;1.67;;;;;;;;;;5062107;28;20048;-67
2023/01/08 13:00:45;;;;;;;2.67;1.17;;;;;;;;;;5046930;28;20508;-67
2023/01/08 13:03:16;;;;;;;3.53;1.55;;;;;;;;;;5032099;28;20037;-66
2023/01/08 13:05:43;;;;;;;4.70;1.67;;;;;;;;;;5047281;28;20498;-69
2023/01/08 13:08:28;;;;;;;3.35;1.33;;;;;;;;;;5062564;28;20505;-68
2023/01/08 13:10:55;;;;;;;2.65;1.02;;;;;;;;;;5060406;28;20040;-66
2023/01/08 13:13:31;;;;;;;2.88;1.00;;;;;;;;;;5046135;28;20049;-67
2023/01/08 13:16:13;;;;;;;7.90;3.60;;;;;;;;;;5046829;28;20040;-67
2023/01/08 13:18:41;;;;;;;2.90;1.00;;;;;;;;;;5047955;28;20032;-67
2023/01/08 13:21:11;;;;;;;4.18;1.15;;;;;;;;;;5047786;28;20032;-67
2023/01/08 13:23:38;;;;;;;3.63;1.00;;;;;;;;;;5042896;28;20067;-67
2023/01/08 13:26:05;;;;;;;3.38;1.25;;;;;;;;;;5045671;28;20060;-67
2023/01/08 13:28:38;;;;;;;2.10;0.80;;;;;;;;;;5046913;28;20039;-68
2023/01/08 13:31:29;;;;;;;5.63;1.10;;;;;;;;;;5047427;28;20081;-68
2023/01/08 13:33:55;;;;;;;3.67;1.02;;;;;;;;;;5043720;28;20044;-68
2023/01/08 13:36:26;;;;;;;3.97;1.55;;;;;;;;;;5048047;28;20036;-67
2023/01/08 13:39:05;;;;;;;3.58;1.20;;;;;;;;;;5048277;28;20041;-69
2023/01/08 13:41:32;;;;;;;4.00;1.13;;;;;;;;;;5047649;28;20060;-68
2023/01/08 13:44:16;;;;;;;3.60;1.10;;;;;;;;;;5044861;28;20758;-67
2023/01/08 13:46:43;;;;;;;3.15;1.13;;;;;;;;;;5044571;28;20506;-68
2023/01/08 13:49:32;;;;;;;2.65;1.00;;;;;;;;;;5049107;28;20106;-68
2023/01/08 13:51:59;;;;;;;3.17;1.10;;;;;;;;;;5026396;28;20048;-68
2023/01/08 13:54:34;;;;;;;2.80;1.08;;;;;;;;;;5027234;28;20133;-67
2023/01/08 13:57:19;;;;;;;4.70;1.23;;;;;;;;;;5026365;28;20045;-69
2023/01/08 13:59:51;;;;;;;3.70;1.02;;;;;;;;;;5025565;28;20049;-67
2023/01/08 14:02:26;;;;;;;6.55;1.92;;;;;;;;;;5040894;28;20041;-69
2023/01/08 14:04:53;;;;;;;4.10;1.20;;;;;;;;;;5025685;28;20064;-67
2023/01/08 14:07:20;;;;;;;3.20;1.15;;;;;;;;;;5024004;28;20545;-67
2023/01/08 14:10:08;;;;;;;3.13;1.00;;;;;;;;;;5061007;28;20052;-65
2023/01/08 14:12:34;;;;;;;4.32;1.20;;;;;;;;;;5059384;28;20044;-68
2023/01/08 14:15:03;;;;;;;5.35;1.52;;;;;;;;;;5059677;28;20056;-65
2023/01/08 14:17:31;;;;;;;4.53;1.40;;;;;;;;;;5048599;28;20580;-66
2023/01/08 14:19:58;;;;;;;4.15;1.42;;;;;;;;;;5060662;28;20044;-67
2023/01/08 14:22:31;;;;;;;3.85;1.45;;;;;;;;;;5062516;28;20209;-67
2023/01/08 14:25:00;;;;;;;3.90;1.27;;;;;;;;;;5062070;28;20350;-68
2023/01/08 14:27:28;;;;;;;3.22;1.27;;;;;;;;;;5058538;28;20049;-68
2023/01/08 14:29:55;;;;;;;3.75;1.50;;;;;;;;;;5037436;28;20123;-68
2023/01/08 14:32:23;;;;;;;4.10;1.60;;;;;;;;;;5060564;28;20033;-68
2023/01/08 14:34:51;;;;;;;3.63;1.30;;;;;;;;;;5061353;28;20813;-68
2023/01/08 14:37:18;;;;;;;4.85;1.38;;;;;;;;;;5044986;28;20070;-68
2023/01/08 14:39:47;;;;;;;3.75;1.50;;;;;;;;;;5079100;28;20602;-67
2023/01/08 14:45:23;;;;;;;4.03;1.65;;;;;;;;;;5073667;28;20086;-67
2023/01/08 14:47:53;;;;;;;4.47;1.60;;;;;;;;;;5045983;28;20073;-71
2023/01/08 14:50:19;;;;;;;4.40;1.50;;;;;;;;;;5039597;28;20120;-68
2023/01/08 14:52:46;;;;;;;5.20;1.27;;;;;;;;;;5059678;28;20029;-68